createdAt,value
2023-09-21T00:00:28.253Z,1.53
2023-09-21T00:02:55.801Z,2.00
2023-09-21T00:05:24.928Z,1.20
2023-09-21T00:07:52.329Z,2.13
2023-09-21T00:10:19.635Z,1.83
2023-09-21T00:12:46.933Z,1.60
2023-09-21T00:15:21.758Z,1.87
2023-09-21T00:21:40.093Z,2.40
2023-09-21T00:24:17.271Z,2.00
2023-09-21T00:26:48.145Z,1.63
2023-09-21T00:29:16.301Z,1.83
2023-09-21T00:31:43.572Z,1.63
2023-09-21T00:34:13.929Z,1.73
2023-09-21T00:36:45.610Z,1.90
2023-09-21T00:42:52.689Z,2.10
2023-09-21T00:45:21.291Z,2.10
2023-09-21T00:47:50.598Z,1.70
2023-09-21T00:50:22.020Z,2.03
2023-09-21T00:52:52.340Z,1.97
2023-09-21T00:55:24.592Z,1.60
2023-09-21T00:57:55.720Z,2.00
2023-09-21T01:04:07.282Z,1.80
2023-09-21T01:06:34.592Z,1.50
2023-09-21T01:09:04.351Z,1.33
2023-09-21T01:11:31.449Z,1.93
2023-09-21T01:13:58.332Z,1.90
2023-09-21T01:16:25.688Z,1.73
2023-09-21T01:18:53.743Z,1.80
2023-09-21T01:25:01.923Z,2.47
2023-09-21T01:27:28.838Z,1.67
2023-09-21T01:29:56.866Z,1.90
2023-09-21T01:32:24.498Z,1.67
2023-09-21T01:34:51.490Z,2.03
2023-09-21T01:37:18.698Z,1.53
2023-09-21T01:39:45.656Z,1.30
2023-09-21T01:42:13.795Z,1.50
2023-09-21T01:49:45.596Z,1.30
2023-09-21T01:52:13.383Z,1.60
2023-09-21T01:54:40.306Z,1.80
2023-09-21T01:57:07.375Z,1.50
2023-09-21T01:59:34.858Z,2.07
2023-09-21T02:02:02.335Z,1.70
2023-09-21T02:04:29.339Z,2.13
2023-09-21T02:06:57.971Z,1.50
2023-09-21T02:14:29.476Z,1.40
2023-09-21T02:16:56.387Z,1.60
2023-09-21T02:19:23.638Z,1.60
2023-09-21T02:21:51.095Z,1.53
2023-09-21T02:24:18.117Z,1.63
2023-09-21T02:26:46.418Z,1.93
2023-09-21T02:29:13.737Z,1.97
2023-09-21T02:34:37.996Z,1.70
2023-09-21T02:37:07.208Z,2.37
2023-09-21T02:39:34.709Z,1.63
2023-09-21T02:42:01.686Z,1.80
2023-09-21T02:44:29.547Z,1.60
2023-09-21T02:46:56.647Z,1.67
2023-09-21T02:49:23.516Z,1.87
2023-09-21T02:54:32.929Z,1.93
2023-09-21T02:57:00.653Z,1.70
2023-09-21T02:59:28.808Z,1.70
2023-09-21T03:01:56.688Z,1.63
2023-09-21T03:04:23.902Z,1.50
2023-09-21T03:06:52.672Z,1.70
2023-09-21T03:09:19.603Z,1.67
2023-09-21T03:19:33.494Z,1.70
2023-09-21T03:22:01.416Z,1.37
2023-09-21T03:24:28.318Z,1.67
2023-09-21T03:26:55.536Z,1.27
2023-09-21T03:29:22.419Z,1.40
2023-09-21T03:31:49.329Z,1.40
2023-09-21T03:34:16.508Z,1.43
2023-09-21T03:36:47.176Z,1.43
2023-09-21T03:44:19.159Z,1.63
2023-09-21T03:46:46.259Z,1.83
2023-09-21T03:49:14.383Z,1.70
2023-09-21T03:51:41.332Z,1.77
2023-09-21T03:54:08.450Z,2.10
2023-09-21T03:56:36.967Z,1.50
2023-09-21T03:59:07.095Z,2.03
2023-09-21T04:07:55.758Z,1.80
2023-09-21T04:10:22.982Z,2.23
2023-09-21T04:12:55.832Z,1.80
2023-09-21T04:15:23.471Z,2.20
2023-09-21T04:17:50.907Z,2.20
2023-09-21T04:20:19.573Z,1.70
2023-09-21T04:22:48.130Z,1.93
2023-09-21T04:28:23.502Z,2.30
2023-09-21T04:30:51.441Z,1.83
2023-09-21T04:33:18.615Z,1.87
2023-09-21T04:35:45.665Z,1.77
2023-09-21T04:38:12.646Z,2.53
2023-09-21T04:40:39.551Z,2.03
2023-09-21T04:43:06.710Z,1.80
2023-09-21T04:48:13.130Z,2.00
2023-09-21T04:50:42.018Z,1.97
2023-09-21T04:53:09.059Z,1.80
2023-09-21T04:55:36.888Z,2.37
2023-09-21T04:58:04.450Z,2.10
2023-09-21T05:00:31.302Z,2.00
2023-09-21T05:02:58.479Z,2.30
2023-09-21T05:09:10.932Z,2.27
2023-09-21T05:11:39.526Z,2.33
2023-09-21T05:14:06.416Z,2.33
2023-09-21T05:16:33.484Z,2.13
2023-09-21T05:19:00.597Z,2.17
2023-09-21T05:21:27.586Z,1.60
2023-09-21T05:23:54.850Z,1.93
2023-09-21T05:26:24.098Z,2.40
2023-09-21T05:33:53.357Z,2.43
2023-09-21T05:36:20.624Z,2.33
2023-09-21T05:38:47.653Z,2.00
2023-09-21T05:41:14.579Z,2.00
2023-09-21T05:43:41.764Z,1.63
2023-09-21T05:46:09.722Z,2.00
2023-09-21T05:48:39.384Z,2.20
2023-09-21T05:59:07.666Z,1.87
2023-09-21T06:01:35.195Z,2.13
2023-09-21T06:04:03.021Z,2.43
2023-09-21T06:06:30.829Z,2.20
2023-09-21T06:08:58.097Z,2.13
2023-09-21T06:11:27.338Z,3.10
2023-09-21T06:13:54.931Z,2.17
2023-09-21T06:16:24.134Z,2.13
2023-09-21T06:23:56.458Z,1.80
2023-09-21T06:26:23.983Z,2.00
2023-09-21T06:28:51.206Z,2.77
2023-09-21T06:31:21.277Z,3.47
2023-09-21T06:33:48.632Z,2.07
2023-09-21T06:36:19.203Z,2.37
2023-09-21T06:38:49.276Z,2.30
2023-09-21T06:43:59.661Z,2.37
2023-09-21T06:46:27.107Z,2.27
2023-09-21T06:48:55.977Z,2.27
2023-09-21T06:51:24.988Z,2.10
2023-09-21T06:53:52.209Z,2.20
2023-09-21T06:56:21.880Z,2.40
2023-09-21T06:58:48.899Z,2.20
2023-09-21T07:05:26.540Z,1.73
2023-09-21T07:07:54.659Z,2.50
2023-09-21T07:10:21.564Z,2.03
2023-09-21T07:12:48.652Z,2.70
2023-09-21T07:15:15.728Z,1.80
2023-09-21T07:17:45.018Z,1.70
2023-09-21T07:20:13.013Z,2.43
2023-09-21T07:25:23.919Z,2.40
2023-09-21T07:27:53.387Z,2.23
2023-09-21T07:30:20.908Z,2.13
2023-09-21T10:32:49.904Z,1.97
2023-09-21T10:35:21.159Z,2.00
2023-09-21T10:37:52.283Z,1.87
2023-09-21T10:40:23.237Z,1.50
2023-09-21T10:42:52.106Z,1.90
2023-09-21T10:45:24.800Z,2.20
2023-09-21T10:47:54.639Z,1.60
2023-09-21T10:53:49.590Z,2.33
2023-09-21T10:56:16.601Z,1.73
2023-09-21T10:58:44.089Z,1.90
2023-09-21T11:01:11.607Z,1.77
2023-09-21T11:03:39.338Z,1.87
2023-09-21T11:06:06.797Z,1.60
2023-09-21T11:08:34.967Z,2.10
2023-09-21T11:14:45.502Z,1.50
2023-09-21T11:17:15.090Z,1.97
2023-09-21T11:19:43.474Z,2.10
2023-09-21T11:22:11.486Z,1.83
2023-09-21T11:24:39.128Z,2.30
2023-09-21T11:27:08.602Z,1.90
2023-09-21T11:29:35.879Z,1.87
2023-09-21T11:32:10.101Z,1.73
2023-09-21T11:39:46.391Z,1.50
2023-09-21T11:42:17.255Z,2.00
2023-09-21T11:44:53.606Z,1.77
2023-09-21T11:47:22.860Z,1.80
2023-09-21T11:49:54.422Z,1.70
2023-09-21T11:52:24.017Z,1.80
2023-09-21T11:54:53.356Z,2.10
2023-09-21T11:57:22.530Z,1.90
2023-09-21T12:04:54.537Z,2.23
2023-09-21T12:07:21.680Z,2.40
2023-09-21T12:09:52.452Z,2.70
2023-09-21T12:12:19.513Z,2.13
2023-09-21T12:14:46.504Z,2.03
2023-09-21T12:17:19.777Z,2.00
2023-09-21T12:19:46.785Z,2.03
2023-09-21T12:28:36.965Z,2.30
2023-09-21T12:31:04.180Z,2.37
2023-09-21T12:33:42.827Z,2.70
2023-09-21T12:36:13.135Z,2.67
2023-09-21T12:38:41.077Z,2.53
2023-09-21T12:41:10.498Z,2.20
2023-09-21T12:43:39.000Z,2.73
2023-09-21T12:53:56.599Z,2.80
2023-09-21T12:56:24.013Z,2.70
2023-09-21T12:58:51.331Z,2.70
2023-09-21T13:01:20.175Z,2.50
2023-09-21T13:03:48.116Z,3.00
2023-09-21T13:06:15.256Z,2.27
2023-09-21T13:08:44.679Z,2.30
2023-09-21T13:13:59.029Z,2.43
2023-09-21T13:16:30.573Z,2.87
2023-09-21T13:19:02.705Z,2.40
2023-09-21T13:21:35.185Z,1.87
2023-09-21T13:24:09.684Z,2.27
2023-09-21T13:26:48.134Z,2.23
2023-09-21T13:29:23.081Z,2.03
2023-09-21T13:35:44.545Z,2.10
2023-09-21T13:38:12.051Z,2.37
2023-09-21T13:40:39.358Z,2.47
2023-09-21T13:43:06.478Z,1.73
2023-09-21T13:45:33.889Z,2.00
2023-09-21T13:48:01.437Z,1.90
2023-09-21T13:50:29.299Z,1.77
2023-09-21T14:00:44.794Z,2.10
2023-09-21T14:03:12.672Z,1.67
2023-09-21T14:05:40.930Z,1.80
2023-09-21T14:08:10.361Z,1.67
2023-09-21T14:10:37.668Z,2.10
2023-09-21T14:13:05.090Z,1.90
2023-09-21T14:15:32.144Z,1.70
2023-09-21T14:25:46.856Z,1.80
2023-09-21T14:28:14.111Z,1.60
2023-09-21T14:30:41.264Z,1.90
2023-09-21T14:33:08.972Z,1.77
2023-09-21T14:35:36.085Z,2.00
2023-09-21T14:38:03.450Z,2.00
2023-09-21T14:40:30.642Z,2.00
2023-09-21T14:46:43.605Z,1.73
2023-09-21T14:49:11.193Z,1.90
2023-09-21T14:51:38.516Z,1.87
2023-09-21T14:54:06.983Z,1.53
2023-09-21T14:56:33.979Z,1.60
2023-09-21T14:59:01.547Z,1.80
2023-09-21T15:01:28.678Z,2.30
2023-09-21T15:03:56.969Z,2.00
2023-09-21T15:11:29.231Z,1.67
2023-09-21T15:13:56.912Z,2.03
2023-09-21T15:16:24.763Z,2.00
2023-09-21T15:18:52.310Z,1.60
2023-09-21T15:21:19.788Z,1.87
2023-09-21T15:23:47.229Z,2.27
2023-09-21T15:26:19.916Z,1.93
2023-09-21T15:36:10.700Z,1.97
2023-09-21T15:38:38.457Z,1.70
2023-09-21T15:41:05.784Z,1.80
2023-09-21T15:43:33.442Z,1.90
2023-09-21T15:46:00.990Z,1.57
2023-09-21T15:48:33.634Z,2.10
2023-09-21T15:51:00.975Z,1.60
2023-09-21T16:02:14.610Z,1.93
2023-09-21T16:04:41.876Z,1.93
2023-09-21T16:07:09.859Z,1.50
2023-09-21T16:09:37.495Z,1.10
2023-09-21T16:12:07.689Z,1.67
2023-09-21T16:14:34.959Z,1.73
2023-09-21T16:17:03.450Z,1.50
2023-09-21T16:22:23.829Z,1.60
2023-09-21T16:24:51.049Z,1.27
2023-09-21T16:27:18.407Z,1.70
2023-09-21T16:29:47.649Z,1.50
2023-09-21T16:32:15.659Z,1.40
2023-09-21T16:34:42.651Z,1.20
2023-09-21T16:37:10.220Z,1.33
2023-09-21T16:43:20.354Z,1.33
2023-09-21T16:45:47.378Z,1.03
2023-09-21T16:48:14.373Z,1.37
2023-09-21T16:50:41.488Z,1.53
2023-09-21T16:53:08.812Z,1.60
2023-09-21T16:55:36.910Z,1.37
2023-09-21T16:58:04.917Z,1.53
2023-09-21T17:08:42.395Z,1.37
2023-09-21T17:11:11.020Z,1.20
2023-09-21T17:13:38.130Z,1.47
2023-09-21T17:16:06.289Z,1.43
2023-09-21T17:18:33.742Z,1.43
2023-09-21T17:21:01.650Z,1.53
2023-09-21T17:23:28.907Z,1.50
2023-09-21T17:31:05.079Z,1.80
2023-09-21T17:33:40.265Z,1.30
2023-09-21T17:36:09.898Z,1.50
2023-09-21T17:38:46.499Z,1.63
2023-09-21T17:41:16.803Z,1.50
2023-09-21T17:43:44.134Z,1.37
2023-09-21T17:46:13.015Z,1.40
2023-09-21T17:51:28.844Z,1.60
2023-09-21T17:53:58.955Z,1.27
2023-09-21T17:56:28.866Z,1.73
2023-09-21T17:58:57.023Z,1.47
2023-09-21T18:01:27.146Z,1.40
2023-09-21T18:03:55.249Z,1.93
2023-09-21T18:06:23.674Z,0.60
2023-09-21T18:11:34.063Z,0.50
2023-09-21T18:14:01.340Z,0.60
2023-09-21T18:16:29.004Z,0.30
2023-09-21T18:18:58.932Z,0.30
2023-09-21T18:21:26.795Z,0.50
2023-09-21T18:23:54.080Z,0.20
2023-09-21T18:26:22.533Z,0.40
2023-09-21T18:31:44.988Z,0.40
2023-09-21T18:34:12.160Z,0.33
2023-09-21T18:36:39.309Z,0.57
2023-09-21T18:39:06.772Z,0.43
2023-09-21T18:41:35.070Z,0.50
2023-09-21T18:44:02.331Z,0.43
2023-09-21T18:46:31.053Z,0.90
2023-09-21T18:51:57.777Z,1.00
2023-09-21T18:54:26.455Z,0.50
2023-09-21T18:57:02.424Z,0.40
2023-09-21T18:59:33.049Z,0.40
2023-09-21T19:02:03.839Z,0.63
2023-09-21T19:04:31.749Z,0.60
2023-09-21T19:10:40.078Z,0.83
2023-09-21T19:13:08.297Z,0.50
2023-09-21T19:15:35.766Z,0.50
2023-09-21T19:18:03.284Z,1.90
2023-09-21T19:20:31.144Z,0.50
2023-09-21T19:22:58.540Z,0.90
2023-09-21T19:25:26.008Z,0.80
2023-09-21T19:31:07.683Z,0.63
2023-09-21T19:33:35.276Z,0.80
2023-09-21T19:36:02.756Z,0.93
2023-09-21T19:38:29.854Z,0.70
2023-09-21T19:40:57.181Z,0.80
2023-09-21T19:43:24.630Z,0.83
2023-09-21T19:45:52.283Z,1.00
2023-09-21T19:48:21.566Z,0.83
2023-09-21T19:55:53.426Z,0.80
2023-09-21T19:58:20.774Z,0.50
2023-09-21T20:00:48.060Z,0.70
2023-09-21T20:03:17.526Z,0.50
2023-09-21T20:05:45.338Z,0.60
2023-09-21T20:08:12.465Z,0.77
2023-09-21T20:10:39.702Z,0.73
2023-09-21T20:19:43.022Z,0.57
2023-09-21T20:22:11.081Z,0.50
2023-09-21T20:24:38.325Z,0.53
2023-09-21T20:27:06.779Z,0.40
2023-09-21T20:29:35.595Z,0.40
2023-09-21T20:32:06.169Z,0.47
2023-09-21T20:34:33.434Z,0.40
2023-09-21T20:39:54.389Z,0.23
2023-09-21T20:42:22.094Z,0.30
2023-09-21T20:44:50.810Z,0.60
2023-09-21T20:47:18.538Z,0.60
2023-09-21T20:49:46.295Z,0.43
2023-09-21T20:52:13.767Z,0.60
2023-09-21T20:54:41.309Z,0.60
2023-09-21T21:00:23.112Z,0.70
2023-09-21T21:02:50.545Z,0.70
2023-09-21T21:05:17.523Z,0.93
2023-09-21T21:07:44.676Z,0.60
2023-09-21T21:10:11.449Z,1.00
2023-09-21T21:12:39.384Z,0.67
2023-09-21T21:15:37.341Z,0.50
2023-09-21T21:24:44.744Z,0.50
2023-09-21T21:27:12.400Z,0.70
2023-09-21T21:29:39.400Z,1.07
2023-09-21T21:32:07.920Z,0.50
2023-09-21T21:34:34.909Z,0.43
2023-09-21T21:37:02.514Z,0.30
2023-09-21T21:39:29.559Z,0.47
2023-09-21T21:44:40.140Z,0.50
2023-09-21T21:47:07.524Z,0.50
2023-09-21T21:49:34.945Z,0.50
2023-09-21T21:52:02.477Z,0.30
2023-09-21T21:54:29.512Z,0.40
2023-09-21T21:56:57.384Z,0.50
2023-09-21T21:59:25.120Z,0.33
2023-09-21T22:05:51.960Z,0.50
2023-09-21T22:08:19.264Z,0.50
2023-09-21T22:10:46.268Z,0.50
2023-09-21T22:13:13.847Z,0.47
2023-09-21T22:15:41.228Z,0.50
2023-09-21T22:18:09.741Z,0.60
2023-09-21T22:20:40.588Z,0.70
2023-09-21T22:30:50.107Z,0.50
2023-09-21T22:33:17.719Z,0.70
2023-09-21T22:35:44.988Z,0.77
2023-09-21T22:38:14.934Z,0.80
2023-09-21T22:40:43.738Z,0.50
2023-09-21T22:43:11.266Z,0.60
2023-09-21T22:45:39.969Z,0.60
2023-09-21T22:51:32.803Z,0.53
2023-09-21T22:54:00.488Z,0.60
2023-09-21T22:56:27.685Z,0.50
2023-09-21T22:58:56.924Z,0.40
2023-09-21T23:01:23.897Z,0.60
2023-09-21T23:03:50.952Z,0.60
2023-09-21T23:06:19.374Z,0.70
2023-09-21T23:16:33.887Z,0.60
2023-09-21T23:19:01.821Z,0.60
2023-09-21T23:21:30.006Z,0.60
2023-09-21T23:23:57.040Z,0.80
2023-09-21T23:26:24.142Z,0.80
2023-09-21T23:28:51.287Z,0.80
2023-09-21T23:31:19.089Z,0.60
2023-09-21T23:36:31.368Z,0.83
2023-09-21T23:39:14.216Z,0.80
2023-09-21T23:41:42.148Z,0.87
2023-09-21T23:44:11.422Z,0.90
2023-09-21T23:46:41.524Z,0.90
2023-09-21T23:49:08.818Z,0.60
2023-09-21T23:51:36.922Z,0.90
2023-09-21T23:57:44.271Z,0.80
